Time;durP1;ratioP1;P1;durP2;ratioP2;P2;SDS_P1;SDS_P2;PMS_P1;PMS_P2;Temp;Humidity;BMP_temperature;BMP_pressure;BME280_temperature;BME280_humidity;BME280_pressure;Samples;Min_cycle;Max_cycle;Signal;HPM_P1;HPM_P2
2023/06/16 00:01:08;;;;;;;3.50;1.50;;;14.10;89.50;;;;;;5051676;28;20505;-64
2023/06/16 00:03:34;;;;;;;2.78;1.50;;;14.10;89.40;;;;;;5034458;28;20557;-64
2023/06/16 00:06:15;;;;;;;3.15;1.40;;;14.10;89.60;;;;;;5051566;28;20564;-64
2023/06/16 00:08:48;;;;;;;2.67;1.40;;;14.10;90.00;;;;;;5035212;28;20079;-63
2023/06/16 00:11:17;;;;;;;1.95;1.17;;;14.00;90.00;;;;;;5034413;28;20036;-64
2023/06/16 00:13:47;;;;;;;2.35;1.50;;;14.00;90.20;;;;;;5051774;28;20132;-63
2023/06/16 00:16:14;;;;;;;;;;;14.00;90.30;;;;;;5051895;28;20041;-63
2023/06/16 00:18:43;;;;;;;4.78;1.70;;;14.00;91.50;;;;;;5050808;28;19920;-63
2023/06/16 00:21:10;;;;;;;2.38;1.48;;;14.00;91.00;;;;;;5051640;28;20095;-63
2023/06/16 00:23:36;;;;;;;4.57;2.15;;;13.90;91.10;;;;;;5050726;28;20044;-63
2023/06/16 00:26:02;;;;;;;2.20;1.15;;;13.90;90.90;;;;;;5051517;28;20037;-63
2023/06/16 00:28:28;;;;;;;3.85;1.83;;;13.80;90.90;;;;;;5034861;28;20041;-63
2023/06/16 00:30:53;;;;;;;2.47;1.40;;;13.80;90.90;;;;;;5051781;28;20203;-63
2023/06/16 00:33:19;;;;;;;5.15;1.77;;;13.70;91.00;;;;;;5051044;28;20057;-63
2023/06/16 00:35:45;;;;;;;3.20;1.35;;;13.70;91.00;;;;;;5051058;28;20056;-64
2023/06/16 00:38:11;;;;;;;3.05;1.80;;;13.50;91.20;;;;;;5033780;28;20049;-63
2023/06/16 00:40:38;;;;;;;5.82;1.50;;;13.50;91.20;;;;;;5052342;28;20095;-63
2023/06/16 00:43:04;;;;;;;2.88;1.33;;;13.40;91.30;;;;;;5051195;28;20041;-63
2023/06/16 00:45:30;;;;;;;3.28;1.70;;;13.40;91.80;;;;;;5051608;28;20069;-63
2023/06/16 00:47:58;;;;;;;2.22;1.50;;;13.30;91.80;;;;;;5051182;28;20048;-63
2023/06/16 00:50:24;;;;;;;3.10;1.67;;;13.30;92.00;;;;;;5052270;28;20059;-63
2023/06/16 00:52:50;;;;;;;2.55;1.13;;;13.30;92.00;;;;;;5051277;28;20058;-63
2023/06/16 00:55:19;;;;;;;3.30;1.90;;;13.20;92.10;;;;;;5050691;28;20040;-63
2023/06/16 00:57:45;;;;;;;3.22;1.83;;;13.10;92.10;;;;;;5050646;28;20041;-63
2023/06/16 01:00:12;;;;;;;2.92;1.50;;;13.00;92.40;;;;;;5050019;28;20049;-63
2023/06/16 01:02:40;;;;;;;3.92;1.88;;;12.90;92.60;;;;;;5050528;28;20045;-63
2023/06/16 01:05:08;;;;;;;4.07;2.17;;;12.90;92.80;;;;;;5052063;28;20045;-64
2023/06/16 01:07:46;;;;;;;4.20;1.85;;;12.80;93.10;;;;;;5049948;28;20052;-63
2023/06/16 01:10:33;;;;;;;4.03;1.38;;;12.70;93.30;;;;;;5050735;28;20041;-63
2023/06/16 01:13:14;;;;;;;5.47;2.20;;;12.60;93.70;;;;;;5051516;28;20040;-63
2023/06/16 01:15:43;;;;;;;2.75;1.75;;;12.70;94.00;;;;;;5050317;28;20048;-63
2023/06/16 01:18:14;;;;;;;6.70;2.47;;;12.70;94.20;;;;;;5051614;28;20073;-63
2023/06/16 01:20:53;;;;;;;3.22;2.05;;;12.60;94.20;;;;;;5049632;28;20037;-63
2023/06/16 01:23:56;;;;;;;3.88;2.00;;;12.60;94.20;;;;;;5033862;28;20037;-63
2023/06/16 01:26:23;;;;;;;5.13;2.55;;;12.60;94.60;;;;;;5050491;28;20041;-63
2023/06/16 01:28:51;;;;;;;2.53;1.80;;;12.60;94.70;;;;;;5049441;28;20080;-63
2023/06/16 01:31:19;;;;;;;3.03;1.52;;;12.60;94.80;;;;;;5050246;28;20533;-63
2023/06/16 01:33:47;;;;;;;2.97;1.90;;;12.60;95.00;;;;;;5049352;28;20102;-63
2023/06/16 01:36:15;;;;;;;7.93;1.98;;;12.50;95.20;;;;;;5051143;28;20128;-63
2023/06/16 01:38:43;;;;;;;3.60;1.88;;;12.50;95.40;;;;;;5051282;28;20049;-63
2023/06/16 01:41:10;;;;;;;4.03;2.25;;;12.40;95.60;;;;;;5050639;28;20044;-63
2023/06/16 01:43:36;;;;;;;3.53;1.52;;;12.40;95.70;;;;;;5050170;28;20071;-63
2023/06/16 01:46:03;;;;;;;3.38;1.85;;;12.30;96.10;;;;;;5051064;28;20117;-63
2023/06/16 01:48:30;;;;;;;3.00;1.52;;;12.20;96.30;;;;;;5049107;28;20111;-63
2023/06/16 01:50:55;;;;;;;3.75;1.85;;;12.10;96.50;;;;;;5050937;28;20049;-63
2023/06/16 01:53:21;;;;;;;3.17;1.90;;;12.10;96.70;;;;;;5051059;28;20612;-63
2023/06/16 01:55:51;;;;;;;5.15;2.60;;;12.00;96.60;;;;;;5050215;28;20516;-63
2023/06/16 01:58:19;;;;;;;3.72;1.98;;;12.00;96.90;;;;;;5049464;28;20045;-63
2023/06/16 02:00:51;;;;;;;4.18;1.90;;;11.90;97.10;;;;;;5049412;28;20049;-63
2023/06/16 02:03:25;;;;;;;4.18;2.63;;;11.90;97.40;;;;;;5049195;28;20442;-63
2023/06/16 02:05:53;;;;;;;3.75;1.88;;;11.90;97.60;;;;;;5049370;28;20044;-63
2023/06/16 02:08:23;;;;;;;4.93;2.30;;;11.90;97.90;;;;;;5048852;28;20127;-63
2023/06/16 02:10:49;;;;;;;3.92;1.88;;;11.90;98.00;;;;;;5050021;28;20045;-63
2023/06/16 02:13:14;;;;;;;6.20;2.08;;;11.90;98.20;;;;;;5050657;28;20561;-63
2023/06/16 02:15:40;;;;;;;5.97;3.35;;;12.00;98.40;;;;;;5048505;28;20124;-63
2023/06/16 02:18:09;;;;;;;3.85;2.35;;;12.00;98.40;;;;;;5049061;28;20047;-63
2023/06/16 02:20:36;;;;;;;4.28;2.55;;;12.10;98.90;;;;;;5049063;28;20143;-63
2023/06/16 02:23:02;;;;;;;3.88;3.13;;;12.10;98.70;;;;;;5032199;28;20134;-63
2023/06/16 02:25:27;;;;;;;4.97;3.10;;;12.20;98.90;;;;;;5049021;28;20040;-63
2023/06/16 02:27:53;;;;;;;3.50;2.60;;;12.20;99.10;;;;;;5049134;28;20064;-63
2023/06/16 02:30:19;;;;;;;5.07;2.55;;;12.30;99.30;;;;;;5048260;28;20048;-63
2023/06/16 02:32:48;;;;;;;4.57;2.92;;;12.30;99.50;;;;;;5049116;28;20049;-63
2023/06/16 02:35:14;;;;;;;4.78;3.50;;;12.30;99.60;;;;;;5050557;28;20063;-63
2023/06/16 02:37:41;;;;;;;4.78;3.17;;;12.30;99.70;;;;;;5049440;28;20044;-63
2023/06/16 02:40:08;;;;;;;5.50;2.45;;;12.30;99.80;;;;;;5050006;28;20123;-62
2023/06/16 02:42:34;;;;;;;5.63;3.10;;;12.40;99.80;;;;;;5048952;28;20470;-63
2023/06/16 02:45:00;;;;;;;5.32;3.10;;;12.40;99.80;;;;;;5048360;28;20064;-63
2023/06/16 02:47:26;;;;;;;7.35;3.45;;;12.40;99.90;;;;;;5048898;28;20037;-62
2023/06/16 02:49:54;;;;;;;4.85;2.55;;;12.40;99.90;;;;;;5048521;28;20503;-62
2023/06/16 02:52:21;;;;;;;5.40;2.88;;;12.40;99.90;;;;;;5049131;28;20391;-63
2023/06/16 02:54:47;;;;;;;6.45;3.85;;;12.40;99.90;;;;;;5049828;28;20033;-62
2023/06/16 02:57:12;;;;;;;4.80;3.30;;;12.40;99.90;;;;;;5049635;28;20110;-62
2023/06/16 02:59:38;;;;;;;7.80;3.58;;;12.40;99.90;;;;;;5047747;28;20079;-62
2023/06/16 03:02:04;;;;;;;6.15;3.63;;;12.40;99.90;;;;;;5048418;28;20052;-63
2023/06/16 03:04:30;;;;;;;5.45;3.15;;;12.40;99.90;;;;;;5049116;28;20045;-64
2023/06/16 03:06:57;;;;;;;6.85;3.75;;;12.40;99.90;;;;;;5048553;28;20699;-63
2023/06/16 03:09:26;;;;;;;5.82;3.47;;;12.40;99.90;;;;;;5048564;28;20083;-63
2023/06/16 03:11:53;;;;;;;5.88;2.95;;;12.40;99.90;;;;;;5049154;28;20049;-63
2023/06/16 03:14:20;;;;;;;8.55;3.70;;;12.40;99.90;;;;;;5048254;28;20041;-63
2023/06/16 03:16:50;;;;;;;8.00;3.22;;;12.30;99.90;;;;;;5031889;28;20128;-63
2023/06/16 03:19:17;;;;;;;6.05;3.10;;;12.30;99.90;;;;;;5030426;28;20500;-63
2023/06/16 03:21:44;;;;;;;6.18;3.35;;;12.30;99.90;;;;;;5050091;28;20036;-63
2023/06/16 03:24:13;;;;;;;5.75;3.80;;;12.20;99.90;;;;;;5049261;28;20530;-63
2023/06/16 03:26:39;;;;;;;6.45;4.00;;;12.20;99.90;;;;;;5049985;28;20044;-63
2023/06/16 03:29:07;;;;;;;6.55;3.60;;;12.20;99.90;;;;;;5032490;28;20102;-63
2023/06/16 03:31:33;;;;;;;8.30;4.35;;;12.30;99.90;;;;;;5049091;28;20040;-63
2023/06/16 03:33:59;;;;;;;6.45;3.67;;;12.30;99.90;;;;;;5048539;28;20041;-63
2023/06/16 03:36:26;;;;;;;5.93;3.60;;;12.30;99.90;;;;;;5049359;28;20045;-63
2023/06/16 03:38:53;;;;;;;6.80;4.25;;;12.30;99.90;;;;;;5050225;28;20179;-63
2023/06/16 03:41:19;;;;;;;5.55;3.65;;;12.30;99.90;;;;;;5048505;28;20374;-63
2023/06/16 03:43:44;;;;;;;7.25;3.60;;;12.30;99.90;;;;;;5050252;28;20037;-63
2023/06/16 03:46:10;;;;;;;8.48;4.50;;;12.30;99.90;;;;;;5048774;28;20481;-63
2023/06/16 03:48:36;;;;;;;7.53;3.13;;;12.30;99.90;;;;;;5049575;28;20037;-63
2023/06/16 03:51:02;;;;;;;6.45;3.50;;;12.30;99.90;;;;;;5048503;28;20068;-63
2023/06/16 03:53:28;;;;;;;6.15;3.78;;;12.30;99.90;;;;;;5047988;28;20049;-63
2023/06/16 03:55:55;;;;;;;7.28;3.55;;;12.30;99.90;;;;;;5048748;28;20071;-63
2023/06/16 03:58:20;;;;;;;7.18;3.45;;;12.30;99.90;;;;;;5048120;28;20087;-63
2023/06/16 04:00:46;;;;;;;6.90;3.85;;;12.40;99.90;;;;;;5049639;28;20068;-63
2023/06/16 04:03:15;;;;;;;8.50;3.92;;;12.40;99.90;;;;;;5048028;28;20094;-63
2023/06/16 04:05:41;;;;;;;5.32;3.25;;;12.40;99.90;;;;;;5047688;28;20072;-63
2023/06/16 04:08:07;;;;;;;8.32;4.03;;;12.40;99.90;;;;;;5030513;28;20124;-63
2023/06/16 04:10:33;;;;;;;7.82;4.10;;;12.50;99.90;;;;;;5047672;28;20155;-63
2023/06/16 04:12:59;;;;;;;6.05;4.00;;;12.50;99.90;;;;;;5049058;28;20112;-63
2023/06/16 04:15:25;;;;;;;6.20;4.13;;;12.50;99.90;;;;;;5048415;28;20509;-63
2023/06/16 04:17:51;;;;;;;9.90;4.95;;;12.50;99.90;;;;;;5047680;28;20123;-63
2023/06/16 04:20:16;;;;;;;4.45;3.65;;;12.50;99.90;;;;;;5048696;28;20044;-63
2023/06/16 04:22:42;;;;;;;6.15;3.50;;;12.50;99.90;;;;;;5048211;28;20497;-63
2023/06/16 04:25:09;;;;;;;7.00;3.83;;;12.60;99.90;;;;;;5048084;28;20033;-63
2023/06/16 04:27:36;;;;;;;6.47;4.22;;;12.60;99.90;;;;;;5068458;28;20073;-63
2023/06/16 04:30:03;;;;;;;5.95;3.35;;;12.60;99.90;;;;;;5068249;28;20491;-63
2023/06/16 04:32:29;;;;;;;6.07;3.25;;;12.60;99.90;;;;;;5071180;28;20123;-63
2023/06/16 04:34:57;;;;;;;9.23;4.55;;;12.70;99.90;;;;;;5071060;28;20170;-63
2023/06/16 04:37:23;;;;;;;8.07;4.60;;;12.70;99.90;;;;;;5070525;28;20041;-63
2023/06/16 04:39:49;;;;;;;6.63;4.28;;;12.70;99.90;;;;;;5072182;28;20043;-63
2023/06/16 04:42:15;;;;;;;6.70;4.20;;;12.80;99.90;;;;;;5071234;28;20074;-63
2023/06/16 04:44:41;;;;;;;7.28;4.45;;;12.90;99.90;;;;;;5053932;28;20082;-63
2023/06/16 04:47:09;;;;;;;8.40;4.25;;;13.00;99.90;;;;;;5070925;28;20119;-63
2023/06/16 04:49:35;;;;;;;15.02;4.57;;;13.10;99.90;;;;;;5070506;28;20075;-63
2023/06/16 04:52:01;;;;;;;6.18;4.35;;;13.20;99.90;;;;;;5071980;28;20235;-63
2023/06/16 04:54:29;;;;;;;7.53;4.28;;;13.30;99.90;;;;;;5072408;28;20119;-62
2023/06/16 04:56:55;;;;;;;13.55;5.40;;;13.40;99.90;;;;;;5070349;28;20370;-63
2023/06/16 04:59:20;;;;;;;9.45;4.47;;;13.60;99.90;;;;;;5070616;28;20044;-63
2023/06/16 05:01:46;;;;;;;9.93;5.43;;;13.70;99.90;;;;;;5070913;28;20042;-63
2023/06/16 05:04:12;;;;;;;9.90;5.25;;;13.90;99.90;;;;;;5071084;28;20075;-63
2023/06/16 05:06:38;;;;;;;9.30;4.60;;;14.00;99.90;;;;;;5070525;28;20131;-63
2023/06/16 05:09:05;;;;;;;8.63;4.53;;;14.20;99.90;;;;;;5070746;28;20090;-63
2023/06/16 05:11:30;;;;;;;10.23;4.70;;;14.30;99.90;;;;;;5069822;28;20519;-63
2023/06/16 05:13:56;;;;;;;6.82;4.30;;;14.40;99.90;;;;;;5070614;28;20119;-63
2023/06/16 05:16:22;;;;;;;8.85;4.25;;;14.60;99.90;;;;;;5070578;28;20044;-63
2023/06/16 05:18:48;;;;;;;9.23;4.25;;;14.70;99.90;;;;;;5069571;28;20041;-63
2023/06/16 05:21:14;;;;;;;9.10;4.05;;;14.90;99.90;;;;;;5071765;28;20040;-63
2023/06/16 05:23:40;;;;;;;6.65;4.40;;;15.00;99.90;;;;;;5070553;28;20064;-63
2023/06/16 05:26:06;;;;;;;8.38;4.90;;;15.20;99.90;;;;;;5053296;28;20044;-63
2023/06/16 05:28:32;;;;;;;7.97;4.70;;;15.30;99.90;;;;;;5072501;28;20535;-63
2023/06/16 05:30:58;;;;;;;9.23;4.28;;;15.50;99.90;;;;;;5071253;28;20052;-63
2023/06/16 05:33:24;;;;;;;7.88;3.83;;;15.60;99.90;;;;;;5070602;28;20067;-63
2023/06/16 05:35:49;;;;;;;6.28;4.20;;;15.80;99.90;;;;;;5069946;28;20040;-63
2023/06/16 05:38:15;;;;;;;6.63;3.95;;;16.00;99.90;;;;;;5069792;28;20041;-63
2023/06/16 05:40:41;;;;;;;10.35;5.28;;;16.10;99.90;;;;;;5070505;28;20040;-63
2023/06/16 05:43:07;;;;;;;6.30;3.38;;;16.20;99.90;;;;;;5069250;28;20082;-63
2023/06/16 05:45:33;;;;;;;7.00;3.58;;;16.40;99.90;;;;;;5069140;28;20033;-63
2023/06/16 05:47:58;;;;;;;7.20;4.00;;;16.50;99.90;;;;;;5070910;28;20111;-63
2023/06/16 05:50:24;;;;;;;7.63;4.47;;;16.60;99.90;;;;;;5069846;28;20040;-63
2023/06/16 05:52:50;;;;;;;8.70;4.20;;;16.80;99.90;;;;;;5068966;28;20099;-63
2023/06/16 05:55:16;;;;;;;9.45;5.25;;;16.90;99.90;;;;;;5070867;28;20051;-63
2023/06/16 05:57:41;;;;;;;7.35;3.85;;;17.00;99.90;;;;;;5069499;28;20036;-63
2023/06/16 06:00:08;;;;;;;7.18;4.13;;;17.20;99.90;;;;;;5068799;28;20045;-63
2023/06/16 06:02:33;;;;;;;11.70;4.50;;;17.30;99.90;;;;;;5070623;28;20032;-63
2023/06/16 06:04:59;;;;;;;7.57;4.63;;;17.40;99.90;;;;;;5069390;28;20493;-63
2023/06/16 06:07:25;;;;;;;8.32;4.18;;;17.60;99.90;;;;;;5069018;28;20045;-63
2023/06/16 06:09:51;;;;;;;7.18;4.03;;;17.70;99.90;;;;;;5069234;28;20048;-63
2023/06/16 06:12:17;;;;;;;8.23;4.15;;;17.80;99.90;;;;;;5070615;28;20147;-63
2023/06/16 06:14:43;;;;;;;7.00;3.35;;;18.00;99.90;;;;;;5068639;28;20047;-63
2023/06/16 06:17:09;;;;;;;8.30;3.30;;;18.20;99.90;;;;;;5070307;28;20041;-64
2023/06/16 06:19:35;;;;;;;7.65;4.03;;;18.30;99.90;;;;;;5070241;28;20067;-64
2023/06/16 06:22:00;;;;;;;6.25;3.60;;;18.40;99.90;;;;;;5051893;28;20121;-64
2023/06/16 06:24:26;;;;;;;5.75;3.47;;;18.60;99.90;;;;;;5052484;28;20043;-64
2023/06/16 06:26:52;;;;;;;6.75;3.53;;;18.80;99.90;;;;;;5070378;28;20032;-64
2023/06/16 06:29:18;;;;;;;7.40;4.10;;;18.90;99.90;;;;;;5068366;28;20051;-64
2023/06/16 06:31:43;;;;;;;10.80;4.10;;;19.00;99.90;;;;;;5068938;28;20040;-64
2023/06/16 06:34:10;;;;;;;5.85;3.50;;;19.30;99.90;;;;;;5068912;28;20036;-64
2023/06/16 06:36:39;;;;;;;6.68;3.88;;;19.50;99.90;;;;;;5068224;28;20044;-64
2023/06/16 06:39:05;;;;;;;6.55;3.22;;;19.80;99.90;;;;;;5068700;28;20045;-64
2023/06/16 06:41:31;;;;;;;7.38;3.88;;;20.00;99.90;;;;;;5069584;28;20405;-64
2023/06/16 06:43:57;;;;;;;7.80;3.60;;;20.20;99.90;;;;;;5070082;28;20102;-64
2023/06/16 06:46:23;;;;;;;5.72;3.50;;;20.30;99.90;;;;;;5069998;28;20079;-64
2023/06/16 06:48:49;;;;;;;7.00;2.90;;;20.50;99.90;;;;;;5068492;28;20040;-64
2023/06/16 06:51:15;;;;;;;4.63;2.42;;;20.70;99.90;;;;;;5068666;28;20084;-64
2023/06/16 06:53:41;;;;;;;9.40;3.40;;;20.80;99.90;;;;;;5068740;28;20044;-64
2023/06/16 06:56:07;;;;;;;5.10;2.25;;;21.00;99.90;;;;;;5051277;28;20485;-64
2023/06/16 06:58:33;;;;;;;5.93;2.83;;;21.30;99.90;;;;;;5069693;28;20040;-64
2023/06/16 07:00:59;;;;;;;6.22;2.30;;;21.60;99.90;;;;;;5068459;28;20071;-64
2023/06/16 07:03:26;;;;;;;3.72;2.00;;;21.70;99.90;;;;;;5069299;28;20078;-64
2023/06/16 07:05:53;;;;;;;5.55;2.45;;;22.00;99.90;;;;;;5069710;28;20445;-64
2023/06/16 07:08:19;;;;;;;3.28;1.88;;;22.20;99.90;;;;;;5068754;28;20040;-64
2023/06/16 07:10:45;;;;;;;2.97;1.70;;;22.50;99.90;;;;;;5067824;28;20473;-64
2023/06/16 07:13:11;;;;;;;3.75;2.38;;;22.80;99.90;;;;;;5068378;28;20040;-64
2023/06/16 07:15:36;;;;;;;3.83;2.25;;;22.90;99.90;;;;;;5068342;28;20032;-64
2023/06/16 07:18:02;;;;;;;4.68;2.42;;;23.00;99.90;;;;;;5068333;28;20118;-64
2023/06/16 07:20:29;;;;;;;3.03;1.75;;;23.00;98.60;;;;;;5051596;28;20194;-65
2023/06/16 07:22:54;;;;;;;3.67;1.80;;;23.20;98.80;;;;;;5069757;28;20063;-65
2023/06/16 07:25:20;;;;;;;3.47;2.13;;;23.30;98.40;;;;;;5068230;28;20045;-65
2023/06/16 07:27:46;;;;;;;4.45;2.38;;;23.50;97.90;;;;;;5051895;28;20037;-65
2023/06/16 07:30:12;;;;;;;3.67;2.42;;;23.70;97.20;;;;;;5051348;28;20429;-65
2023/06/16 07:32:41;;;;;;;3.35;1.83;;;23.80;96.70;;;;;;5028502;28;20045;-65
2023/06/16 07:35:08;;;;;;;3.30;1.95;;;23.80;96.50;;;;;;5054363;28;20037;-65
2023/06/16 07:37:34;;;;;;;3.50;1.80;;;23.80;96.50;;;;;;5034133;28;20400;-65
2023/06/16 07:40:00;;;;;;;4.25;2.60;;;23.90;96.00;;;;;;5047534;28;20041;-65
2023/06/16 07:42:26;;;;;;;3.38;2.17;;;23.90;95.80;;;;;;5047344;28;20052;-65
2023/06/16 07:44:52;;;;;;;3.78;2.20;;;24.00;95.60;;;;;;5054663;28;20072;-65
2023/06/16 07:47:18;;;;;;;4.30;2.30;;;24.10;94.70;;;;;;5032140;28;20041;-65
2023/06/16 07:49:44;;;;;;;3.53;1.73;;;24.10;94.60;;;;;;5047175;28;20518;-65
2023/06/16 07:52:11;;;;;;;2.25;1.42;;;24.30;94.60;;;;;;5055842;28;20119;-65
2023/06/16 07:54:40;;;;;;;3.25;1.80;;;24.50;93.90;;;;;;5046300;28;20515;-65
2023/06/16 07:57:07;;;;;;;2.58;1.65;;;24.50;93.50;;;;;;5053608;28;20191;-65
2023/06/16 07:59:33;;;;;;;3.08;1.65;;;24.60;93.60;;;;;;5047342;28;20041;-65
2023/06/16 08:02:01;;;;;;;3.65;1.60;;;24.80;92.70;;;;;;5046094;28;20041;-65
2023/06/16 08:04:29;;;;;;;2.78;1.75;;;25.00;92.60;;;;;;5047060;28;20033;-65
2023/06/16 08:06:56;;;;;;;2.38;1.42;;;25.30;92.60;;;;;;5031978;28;20115;-65
2023/06/16 08:09:23;;;;;;;3.03;1.67;;;25.40;92.00;;;;;;5059678;28;20059;-65
2023/06/16 08:11:50;;;;;;;3.30;1.60;;;25.50;92.00;;;;;;5033655;28;20056;-65
2023/06/16 08:14:16;;;;;;;2.90;1.70;;;25.60;91.50;;;;;;5050737;28;20128;-65
2023/06/16 08:16:42;;;;;;;4.38;1.88;;;25.60;91.00;;;;;;5051241;28;20128;-65
2023/06/16 08:19:08;;;;;;;5.03;1.52;;;25.60;90.90;;;;;;5050850;28;20489;-65
2023/06/16 08:21:35;;;;;;;3.47;2.10;;;25.60;90.60;;;;;;5034372;28;20444;-65
2023/06/16 08:24:01;;;;;;;3.65;2.15;;;25.60;89.80;;;;;;5061033;28;20093;-65
2023/06/16 08:26:28;;;;;;;3.15;1.83;;;25.70;89.00;;;;;;5033635;28;20093;-65
2023/06/16 08:28:54;;;;;;;2.58;1.63;;;25.90;89.40;;;;;;5051183;28;20074;-65
2023/06/16 08:31:20;;;;;;;3.15;1.45;;;26.00;89.10;;;;;;5061304;28;20119;-65
2023/06/16 08:33:46;;;;;;;3.20;2.00;;;26.20;88.00;;;;;;5060908;28;20044;-65
2023/06/16 08:36:12;;;;;;;2.60;1.23;;;26.30;85.80;;;;;;5060356;28;20041;-65
2023/06/16 08:38:38;;;;;;;3.45;1.88;;;26.40;86.30;;;;;;5055301;28;20515;-65
2023/06/16 08:41:10;;;;;;;2.55;1.50;;;26.40;84.00;;;;;;5071772;28;20465;-65
2023/06/16 08:43:37;;;;;;;3.22;1.77;;;26.50;84.30;;;;;;5071893;28;20396;-65
2023/06/16 08:46:08;;;;;;;2.78;1.48;;;26.70;84.20;;;;;;5073519;28;20040;-66
2023/06/16 08:48:36;;;;;;;2.35;1.35;;;26.70;83.20;;;;;;5071484;28;20055;-65
2023/06/16 08:51:09;;;;;;;2.28;1.25;;;26.70;82.80;;;;;;5073209;28;20132;-65
2023/06/16 08:53:37;;;;;;;2.90;1.63;;;26.80;82.80;;;;;;5071931;28;20493;-66
2023/06/16 08:56:05;;;;;;;4.25;1.60;;;26.90;82.70;;;;;;5072767;28;20063;-65
2023/06/16 08:58:34;;;;;;;3.47;2.10;;;27.00;82.50;;;;;;5072060;28;20053;-66
2023/06/16 09:01:03;;;;;;;6.10;2.20;;;27.10;82.00;;;;;;5072987;28;20039;-66
2023/06/16 09:03:33;;;;;;;2.67;1.50;;;27.10;81.00;;;;;;5072296;28;20522;-65
2023/06/16 09:06:00;;;;;;;3.97;2.10;;;27.30;81.80;;;;;;5054969;28;20917;-65
2023/06/16 09:08:27;;;;;;;3.60;1.65;;;27.30;80.60;;;;;;5071752;28;20547;-65
2023/06/16 09:10:56;;;;;;;2.35;1.48;;;27.30;79.30;;;;;;5071573;28;20408;-65
2023/06/16 09:13:26;;;;;;;2.72;1.23;;;27.40;80.50;;;;;;5072994;28;20078;-66
2023/06/16 09:15:56;;;;;;;1.67;1.13;;;27.50;78.80;;;;;;5071124;28;20040;-65
2023/06/16 09:18:24;;;;;;;4.53;1.20;;;27.60;80.30;;;;;;5070241;28;20050;-66
2023/06/16 09:20:53;;;;;;;1.85;1.20;;;27.70;78.90;;;;;;5072038;28;20036;-65
2023/06/16 09:23:28;;;;;;;;;;;27.80;78.70;;;;;;5071875;28;20098;-65
2023/06/16 09:25:54;;;;;;;2.75;1.35;;;27.70;74.90;;;;;;5071818;28;20288;-65
2023/06/16 09:28:34;;;;;;;2.22;1.55;;;27.60;78.00;;;;;;5071988;28;20443;-65
2023/06/16 09:31:12;;;;;;;1.83;0.90;;;27.40;75.00;;;;;;5072922;28;20036;-67
2023/06/16 09:33:39;;;;;;;4.28;1.50;;;27.40;73.60;;;;;;5073019;28;20044;-65
2023/06/16 09:36:05;;;;;;;1.83;0.90;;;27.50;76.40;;;;;;5073092;28;20090;-65
2023/06/16 09:38:39;;;;;;;2.40;1.08;;;27.60;74.80;;;;;;5070996;28;20490;-65
2023/06/16 09:41:09;;;;;;;1.95;1.27;;;27.70;74.70;;;;;;5072517;28;20041;-66
2023/06/16 09:43:37;;;;;;;2.00;1.20;;;27.90;74.00;;;;;;5070773;28;20048;-65
2023/06/16 09:46:02;;;;;;;1.93;0.97;;;28.10;74.10;;;;;;5072545;28;20045;-65
2023/06/16 09:48:34;;;;;;;2.05;1.40;;;28.30;73.50;;;;;;5071320;28;20079;-66
2023/06/16 09:51:00;;;;;;;1.60;1.00;;;28.30;71.90;;;;;;5054101;28;20098;-66
2023/06/16 09:53:26;;;;;;;4.22;1.10;;;28.30;71.20;;;;;;5072372;28;20071;-65
2023/06/16 09:55:55;;;;;;;2.30;1.10;;;28.30;71.70;;;;;;5071004;28;20041;-66
2023/06/16 09:58:21;;;;;;;;;;;28.40;71.60;;;;;;5070708;28;20044;-66
2023/06/16 10:00:47;;;;;;;1.85;1.02;;;28.60;69.70;;;;;;5053373;28;19954;-65
2023/06/16 10:03:14;;;;;;;3.38;1.42;;;28.70;70.70;;;;;;5050767;28;20099;-66
2023/06/16 10:05:42;;;;;;;2.25;1.17;;;28.70;69.80;;;;;;5063065;28;20051;-65
2023/06/16 10:08:08;;;;;;;2.63;1.13;;;28.70;69.00;;;;;;5054263;28;20055;-65
2023/06/16 10:10:38;;;;;;;2.70;1.30;;;28.90;68.70;;;;;;5072119;28;20045;-65
2023/06/16 10:13:06;;;;;;;1.98;0.95;;;29.00;67.40;;;;;;5053733;28;20123;-65
2023/06/16 10:15:37;;;;;;;2.65;1.30;;;29.00;68.00;;;;;;5072142;28;20439;-66
2023/06/16 10:18:06;;;;;;;1.45;0.85;;;29.00;66.60;;;;;;5070304;28;20473;-66
2023/06/16 10:20:32;;;;;;;2.08;1.10;;;29.10;66.90;;;;;;5061015;28;20118;-65
2023/06/16 10:23:02;;;;;;;2.00;1.08;;;29.10;66.50;;;;;;5059135;28;20056;-65
2023/06/16 10:25:29;;;;;;;2.63;1.35;;;29.10;64.70;;;;;;5068022;28;20544;-65
2023/06/16 10:27:56;;;;;;;2.38;1.48;;;29.10;65.60;;;;;;5035355;28;20044;-66
2023/06/16 10:30:23;;;;;;;2.10;1.02;;;29.00;64.80;;;;;;5048843;28;20146;-65
2023/06/16 10:32:52;;;;;;;1.75;0.90;;;29.00;64.60;;;;;;5048617;28;20033;-66
2023/06/16 10:35:18;;;;;;;1.75;1.10;;;29.00;64.10;;;;;;5049923;28;20080;-65
2023/06/16 10:37:50;;;;;;;1.80;1.08;;;29.00;64.00;;;;;;5048538;28;20033;-65
2023/06/16 10:40:22;;;;;;;2.00;0.90;;;29.00;62.70;;;;;;5068960;28;20041;-65
2023/06/16 10:42:49;;;;;;;1.15;0.80;;;29.10;63.70;;;;;;5068345;28;20051;-65
2023/06/16 10:45:26;;;;;;;2.05;1.00;;;29.40;64.00;;;;;;5068359;28;20492;-66
2023/06/16 10:48:01;;;;;;;1.40;0.80;;;29.50;62.40;;;;;;5056784;28;20037;-65
2023/06/16 10:50:58;;;;;;;1.83;0.80;;;29.50;61.90;;;;;;5056378;28;20621;-65
2023/06/16 10:53:25;;;;;;;2.22;0.95;;;29.50;59.40;;;;;;5053128;28;20110;-65
2023/06/16 10:56:06;;;;;;;1.45;0.88;;;29.60;62.00;;;;;;5054723;28;20076;-65
2023/06/16 10:58:32;;;;;;;1.52;0.80;;;29.50;59.80;;;;;;5049162;28;20045;-65
2023/06/16 11:01:01;;;;;;;2.08;0.82;;;29.50;61.80;;;;;;5051850;28;20068;-65
2023/06/16 11:03:43;;;;;;;;;;;29.50;61.20;;;;;;5053654;28;20120;-66
2023/06/16 11:06:09;;;;;;;1.40;0.70;;;29.40;56.20;;;;;;5048620;28;19920;-65
2023/06/16 11:08:48;;;;;;;1.17;0.73;;;29.50;60.30;;;;;;5056266;28;20033;-65
2023/06/16 11:11:15;;;;;;;1.58;0.82;;;29.50;59.50;;;;;;5048747;28;20167;-65
2023/06/16 11:13:42;;;;;;;2.47;0.93;;;29.60;60.60;;;;;;5049858;28;20037;-65
2023/06/16 11:16:08;;;;;;;1.25;0.80;;;29.80;60.00;;;;;;5063408;28;20593;-65
2023/06/16 11:18:35;;;;;;;0.90;0.55;;;29.80;59.60;;;;;;5059670;28;20120;-65
2023/06/16 11:21:10;;;;;;;1.65;0.82;;;29.80;59.30;;;;;;5051282;28;20120;-65
2023/06/16 11:23:36;;;;;;;1.42;0.73;;;29.70;57.30;;;;;;5051000;28;20121;-66
2023/06/16 11:26:11;;;;;;;2.78;1.08;;;29.80;58.80;;;;;;5059107;28;20106;-65
2023/06/16 11:28:40;;;;;;;1.85;0.60;;;29.80;58.70;;;;;;5058450;28;20037;-65
2023/06/16 11:31:07;;;;;;;1.98;0.90;;;30.00;58.50;;;;;;5049198;28;20076;-65
2023/06/16 11:33:33;;;;;;;1.65;0.90;;;30.00;58.60;;;;;;5048194;28;20045;-66
2023/06/16 11:36:16;;;;;;;2.92;0.98;;;30.00;57.70;;;;;;5056561;28;20149;-65
2023/06/16 11:38:44;;;;;;;1.15;0.70;;;30.00;55.90;;;;;;5049869;28;20045;-66
2023/06/16 11:41:18;;;;;;;0.93;0.63;;;29.90;57.70;;;;;;5050380;28;20493;-66
2023/06/16 11:43:44;;;;;;;1.45;0.70;;;29.90;56.70;;;;;;5051628;28;20052;-65
2023/06/16 11:46:10;;;;;;;2.47;1.10;;;29.90;57.30;;;;;;5053613;28;20102;-65
2023/06/16 11:48:37;;;;;;;1.75;1.00;;;29.80;57.60;;;;;;5052267;28;20049;-65
2023/06/16 11:51:07;;;;;;;1.38;0.85;;;29.80;57.70;;;;;;5051399;28;20057;-65
2023/06/16 11:53:34;;;;;;;3.70;1.15;;;29.80;57.30;;;;;;5044439;28;20036;-65
2023/06/16 11:56:00;;;;;;;1.30;0.73;;;29.70;57.10;;;;;;5054946;28;20108;-65
2023/06/16 11:58:29;;;;;;;2.25;1.48;;;29.60;57.40;;;;;;5057362;28;20518;-65
2023/06/16 12:01:00;;;;;;;1.55;1.10;;;29.60;57.70;;;;;;5059004;28;20036;-65
2023/06/16 12:03:31;;;;;;;1.90;1.08;;;29.40;57.50;;;;;;5035986;28;20408;-65
2023/06/16 12:05:59;;;;;;;1.05;0.60;;;29.40;58.00;;;;;;5057132;28;20465;-65
2023/06/16 12:08:51;;;;;;;1.95;1.08;;;29.30;57.90;;;;;;5044966;28;20057;-65
2023/06/16 12:11:28;;;;;;;1.05;0.82;;;29.30;57.50;;;;;;5050765;28;20672;-65
2023/06/16 12:13:55;;;;;;;1.52;1.08;;;29.30;57.50;;;;;;5051638;28;20064;-64
2023/06/16 12:16:21;;;;;;;2.72;1.00;;;29.30;57.70;;;;;;5067469;28;20040;-64
2023/06/16 12:18:51;;;;;;;2.63;0.80;;;29.30;58.00;;;;;;5069667;28;20045;-64
2023/06/16 12:21:21;;;;;;;1.25;0.90;;;29.20;57.60;;;;;;5057901;28;20036;-64
2023/06/16 12:23:56;;;;;;;2.78;1.58;;;29.20;57.50;;;;;;5052759;28;20075;-64
2023/06/16 12:26:40;;;;;;;1.63;0.90;;;29.10;57.00;;;;;;5061424;28;20475;-65
2023/06/16 12:29:11;;;;;;;1.08;0.63;;;29.10;56.50;;;;;;5067669;28;20400;-65
2023/06/16 12:31:52;;;;;;;1.77;0.90;;;29.10;57.60;;;;;;5051615;28;20413;-65
2023/06/16 12:34:22;;;;;;;1.38;0.82;;;29.20;57.50;;;;;;5061244;28;20052;-64
2023/06/16 12:36:48;;;;;;;4.45;1.30;;;29.20;56.90;;;;;;5051206;28;20044;-64
2023/06/16 12:39:20;;;;;;;1.27;0.80;;;29.10;57.20;;;;;;5033455;28;20041;-64
2023/06/16 12:42:01;;;;;;;1.02;0.60;;;29.00;56.40;;;;;;5051924;28;20029;-65
2023/06/16 12:44:43;;;;;;;2.17;0.75;;;29.00;55.60;;;;;;5050709;28;20048;-64
2023/06/16 12:47:09;;;;;;;1.58;0.70;;;28.80;57.20;;;;;;5061012;28;20489;-64
2023/06/16 12:49:35;;;;;;;1.90;0.98;;;28.70;57.30;;;;;;5070607;28;20063;-64
2023/06/16 12:52:01;;;;;;;1.42;0.80;;;28.70;56.80;;;;;;5053324;28;20048;-64